Glocester, Rhode Island
Current Conditions -  °F | °C
As of 11:55 AM on Saturday 22 Nov 2014 (Local Time) from KSFZ Reporting Station
Clear Clear  
Wind Chill:   Ceiling: Unl
Heat Index:   Visibility: 10mi
Dew Point: -12°   Wind: 9mph
Humidity: 31%   Direction: 220°SW
Pressure: 30.26"   Gusts: NA
Location:  41.8875°N, 71.5975°W
Report Text: KSFZ 221655Z 22008KT 10SM CLR 04/M12 A3026 RMK AO1
Loading
Personal Weather Stations






























Interactive Weather Map New forecast layout! Learn more

10-Day Weather Forecast

Advertisements
Track Severe Weather on mobile